Flight Track Log - Related Links

Times and Time Zones

All times are in EDT time to prevent confusion due to time zone crossing. See the LYM134 flight status page for this flight to view local times or setup timezone preferences in your user account.

Time Position Orientation Groundspeed Altitude Reporting Facility
EDT Latitude Longitude Course Direction KTS MPH feet Rate Location/Type
Tue 09:50:54 PM 38.3000 -104.4500 North 158 182 7,000  Level Denver TRACON
Tue 09:51:48 PM 38.3500 -104.4333 15° North 166 191 8,400 920 Climbing Denver TRACON
Tue 09:53:11 PM 38.4136 -104.4217 North 201 231 9,100 1,000 Climbing Denver Center
Tue 09:54:12 PM 38.4847 -104.4131 North 222 255 10,800 1,636 Climbing Denver Center
Tue 09:54:17 PM 38.4908 -104.4156 342° North 226 260 10,900 194 Climbing Denver Center
Tue 09:55:14 PM 38.5508 -104.4094 North 242 278 11,000 51 Climbing Denver Center
Tue 09:56:00 PM 38.6308 -104.5353 North  Level Estimated
Tue 09:56:15 PM 38.6383 -104.4183 355° North 277 319 11,000  Level Denver Center
Tue 09:57:17 PM 38.7150 -104.4367 349° North 289 333 11,000  Level Denver Center
Tue 09:57:54 PM 38.7706 -104.4550 346° North 290 334 11,000  Level Denver Center
Tue 09:58:18 PM 38.7914 -104.4575 355° North 290 334 11,000 70 Level Denver Center
Tue 09:59:20 PM 38.8756 -104.4789 349° North 295 339 11,100  Climbing Denver Center
Tue 10:00:21 PM 38.9572 -104.4906 354° North 293 337 11,000 -98 Descending Denver Center
Tue 10:01:23 PM 39.0394 -104.5022 354° North 296 341 10,900  Descending Denver Center
Tue 10:02:24 PM 39.1342 -104.5222 351° North 297 342 11,000  Climbing Denver Center
Tue 10:03:26 PM 39.2089 -104.5594 339° North 286 329 10,900 -49 Descending Denver Center
Tue 10:04:27 PM 39.2631 -104.6336 313° West 284 327 10,900 -146 Level Denver Center
Tue 10:05:29 PM 39.3447 -104.6653 343° North 293 337 10,600 -435 Descending Denver Center
Tue 10:06:31 PM 39.4319 -104.6642 North 312 359 10,000 -341 Descending Denver Center
Tue 10:07:32 PM 39.5203 -104.6639 360° North 296 341 9,900  Descending Denver Center
Tue 10:08:34 PM 39.5981 -104.6614 North 284 327 10,000 -585 Climbing Denver Center
Tue 10:09:35 PM 39.6689 -104.6617 360° North 261 300 8,700 -1,317 Descending Denver Center
Tue 10:10:37 PM 39.7403 -104.6611 360° North 244 281 7,300 -1,171 Descending Denver Center
Tue 10:11:38 PM 39.7906 -104.6611 360° North 187 215 6,300 -878 Descending Denver Center
Tue 10:12:40 PM 39.8300 -104.6608 360° North 156 180 5,500 -774 Descending Denver Center
Tue 10:14:00 PM 39.8500 -104.6667 346° North  Level FlightAware Approximate
Tue 10:21:00 PM 39.8617 -104.6732 346° North  Level Estimated
Tue 10:22:00 PM 39.8617 -104.6732 346° North  Level Estimated
Tue 10:23:00 PM 39.8617 -104.6732 346° North  Level Estimated

Login

Don't have an account? Register now (free) for customized features, flight alerts, and more!